sensor_id;sensor_type;location;lat;lon;timestamp;P1;durP1;ratioP1;P2;durP2;ratioP2
9082;SDS011;4577;48.704;9.000;2024-01-30T00:01:40;15.10;;;6.40;;
9082;SDS011;4577;48.704;9.000;2024-01-30T00:04:05;10.90;;;6.63;;
9082;SDS011;4577;48.704;9.000;2024-01-30T00:06:31;12.40;;;6.30;;
9082;SDS011;4577;48.704;9.000;2024-01-30T00:08:57;15.80;;;7.23;;
9082;SDS011;4577;48.704;9.000;2024-01-30T00:11:23;16.13;;;7.97;;
9082;SDS011;4577;48.704;9.000;2024-01-30T00:13:50;14.97;;;6.53;;
9082;SDS011;4577;48.704;9.000;2024-01-30T00:16:22;10.67;;;7.20;;
9082;SDS011;4577;48.704;9.000;2024-01-30T00:18:52;10.07;;;6.80;;
9082;SDS011;4577;48.704;9.000;2024-01-30T00:21:19;9.70;;;6.37;;
9082;SDS011;4577;48.704;9.000;2024-01-30T00:23:45;10.30;;;6.10;;
9082;SDS011;4577;48.704;9.000;2024-01-30T00:26:11;9.27;;;6.03;;
9082;SDS011;4577;48.704;9.000;2024-01-30T00:28:37;10.40;;;6.07;;
9082;SDS011;4577;48.704;9.000;2024-01-30T00:31:03;9.40;;;6.00;;
9082;SDS011;4577;48.704;9.000;2024-01-30T00:33:29;9.13;;;6.30;;
9082;SDS011;4577;48.704;9.000;2024-01-30T00:35:55;10.00;;;6.00;;
9082;SDS011;4577;48.704;9.000;2024-01-30T00:38:21;9.20;;;5.30;;
9082;SDS011;4577;48.704;9.000;2024-01-30T00:40:47;8.20;;;6.00;;
9082;SDS011;4577;48.704;9.000;2024-01-30T00:43:13;9.03;;;5.33;;
9082;SDS011;4577;48.704;9.000;2024-01-30T00:45:39;7.90;;;5.07;;
9082;SDS011;4577;48.704;9.000;2024-01-30T00:48:04;9.47;;;5.70;;
9082;SDS011;4577;48.704;9.000;2024-01-30T00:50:30;9.27;;;4.73;;
9082;SDS011;4577;48.704;9.000;2024-01-30T00:52:56;7.03;;;4.60;;
9082;SDS011;4577;48.704;9.000;2024-01-30T00:55:22;8.03;;;4.97;;
9082;SDS011;4577;48.704;9.000;2024-01-30T00:57:47;8.00;;;5.00;;
9082;SDS011;4577;48.704;9.000;2024-01-30T01:00:13;7.00;;;4.77;;
9082;SDS011;4577;48.704;9.000;2024-01-30T01:02:42;7.90;;;4.83;;
9082;SDS011;4577;48.704;9.000;2024-01-30T01:05:08;6.70;;;4.60;;
9082;SDS011;4577;48.704;9.000;2024-01-30T01:07:34;7.87;;;4.70;;
9082;SDS011;4577;48.704;9.000;2024-01-30T01:10:00;8.23;;;4.53;;
9082;SDS011;4577;48.704;9.000;2024-01-30T01:12:26;6.43;;;4.77;;
9082;SDS011;4577;48.704;9.000;2024-01-30T01:14:51;11.13;;;5.67;;
9082;SDS011;4577;48.704;9.000;2024-01-30T01:17:17;19.60;;;5.80;;
9082;SDS011;4577;48.704;9.000;2024-01-30T01:19:43;9.97;;;5.70;;
9082;SDS011;4577;48.704;9.000;2024-01-30T01:22:09;10.03;;;5.50;;
9082;SDS011;4577;48.704;9.000;2024-01-30T01:24:35;10.17;;;5.00;;
9082;SDS011;4577;48.704;9.000;2024-01-30T01:27:01;9.90;;;5.10;;
9082;SDS011;4577;48.704;9.000;2024-01-30T01:29:27;7.40;;;4.60;;
9082;SDS011;4577;48.704;9.000;2024-01-30T01:31:55;15.03;;;5.50;;
9082;SDS011;4577;48.704;9.000;2024-01-30T01:34:22;9.60;;;5.10;;
9082;SDS011;4577;48.704;9.000;2024-01-30T01:36:51;12.67;;;5.57;;
9082;SDS011;4577;48.704;9.000;2024-01-30T01:39:17;7.67;;;4.93;;
9082;SDS011;4577;48.704;9.000;2024-01-30T01:41:43;8.47;;;5.40;;
9082;SDS011;4577;48.704;9.000;2024-01-30T01:44:08;14.53;;;5.27;;
9082;SDS011;4577;48.704;9.000;2024-01-30T01:46:34;7.47;;;4.90;;
9082;SDS011;4577;48.704;9.000;2024-01-30T01:49:01;12.33;;;5.57;;
9082;SDS011;4577;48.704;9.000;2024-01-30T01:51:29;7.60;;;4.70;;
9082;SDS011;4577;48.704;9.000;2024-01-30T01:53:58;8.10;;;4.60;;
9082;SDS011;4577;48.704;9.000;2024-01-30T01:56:26;6.87;;;4.70;;
9082;SDS011;4577;48.704;9.000;2024-01-30T01:58:54;14.90;;;5.37;;
9082;SDS011;4577;48.704;9.000;2024-01-30T02:01:20;7.27;;;4.80;;
9082;SDS011;4577;48.704;9.000;2024-01-30T02:03:48;10.50;;;4.90;;
9082;SDS011;4577;48.704;9.000;2024-01-30T02:06:14;9.27;;;4.70;;
9082;SDS011;4577;48.704;9.000;2024-01-30T02:08:40;7.30;;;4.93;;
9082;SDS011;4577;48.704;9.000;2024-01-30T02:11:07;7.47;;;4.93;;
9082;SDS011;4577;48.704;9.000;2024-01-30T02:13:34;8.73;;;5.13;;
9082;SDS011;4577;48.704;9.000;2024-01-30T02:16:00;8.90;;;4.80;;
9082;SDS011;4577;48.704;9.000;2024-01-30T02:18:26;9.20;;;4.73;;
9082;SDS011;4577;48.704;9.000;2024-01-30T02:20:55;7.40;;;4.83;;
9082;SDS011;4577;48.704;9.000;2024-01-30T02:23:24;7.03;;;4.70;;
9082;SDS011;4577;48.704;9.000;2024-01-30T02:25:50;7.70;;;5.27;;
9082;SDS011;4577;48.704;9.000;2024-01-30T02:28:18;8.33;;;5.43;;
9082;SDS011;4577;48.704;9.000;2024-01-30T02:30:44;8.03;;;5.30;;
9082;SDS011;4577;48.704;9.000;2024-01-30T02:33:10;7.97;;;4.87;;
9082;SDS011;4577;48.704;9.000;2024-01-30T02:35:37;8.60;;;5.57;;
9082;SDS011;4577;48.704;9.000;2024-01-30T02:38:03;9.57;;;5.87;;
9082;SDS011;4577;48.704;9.000;2024-01-30T02:40:29;9.80;;;5.50;;
9082;SDS011;4577;48.704;9.000;2024-01-30T02:42:55;8.50;;;5.40;;
9082;SDS011;4577;48.704;9.000;2024-01-30T02:45:21;11.33;;;4.83;;
9082;SDS011;4577;48.704;9.000;2024-01-30T02:47:47;7.67;;;5.03;;
9082;SDS011;4577;48.704;9.000;2024-01-30T02:50:13;7.50;;;5.23;;
9082;SDS011;4577;48.704;9.000;2024-01-30T02:52:40;9.07;;;4.83;;
9082;SDS011;4577;48.704;9.000;2024-01-30T02:55:11;9.60;;;5.20;;
9082;SDS011;4577;48.704;9.000;2024-01-30T02:57:38;12.70;;;6.97;;
9082;SDS011;4577;48.704;9.000;2024-01-30T03:00:04;16.57;;;8.70;;
9082;SDS011;4577;48.704;9.000;2024-01-30T03:02:33;9.47;;;5.83;;
9082;SDS011;4577;48.704;9.000;2024-01-30T03:04:59;8.90;;;5.73;;
9082;SDS011;4577;48.704;9.000;2024-01-30T03:07:25;11.10;;;6.07;;
9082;SDS011;4577;48.704;9.000;2024-01-30T03:09:51;11.00;;;6.43;;
9082;SDS011;4577;48.704;9.000;2024-01-30T03:12:23;13.17;;;7.13;;
9082;SDS011;4577;48.704;9.000;2024-01-30T03:14:49;9.37;;;5.67;;
9082;SDS011;4577;48.704;9.000;2024-01-30T03:17:15;9.20;;;5.90;;
9082;SDS011;4577;48.704;9.000;2024-01-30T03:19:42;11.03;;;6.77;;
9082;SDS011;4577;48.704;9.000;2024-01-30T03:22:08;7.30;;;5.33;;
9082;SDS011;4577;48.704;9.000;2024-01-30T03:24:34;9.90;;;5.67;;
9082;SDS011;4577;48.704;9.000;2024-01-30T03:27:00;11.23;;;5.97;;
9082;SDS011;4577;48.704;9.000;2024-01-30T03:29:26;12.10;;;6.77;;
9082;SDS011;4577;48.704;9.000;2024-01-30T03:31:52;14.13;;;5.83;;
9082;SDS011;4577;48.704;9.000;2024-01-30T03:34:18;13.13;;;5.73;;
9082;SDS011;4577;48.704;9.000;2024-01-30T03:36:44;10.10;;;5.63;;
9082;SDS011;4577;48.704;9.000;2024-01-30T03:39:10;10.90;;;5.50;;
9082;SDS011;4577;48.704;9.000;2024-01-30T03:41:36;22.50;;;9.00;;
9082;SDS011;4577;48.704;9.000;2024-01-30T03:44:03;23.40;;;10.90;;
9082;SDS011;4577;48.704;9.000;2024-01-30T03:46:29;10.43;;;6.47;;
9082;SDS011;4577;48.704;9.000;2024-01-30T03:48:58;8.37;;;5.50;;
9082;SDS011;4577;48.704;9.000;2024-01-30T03:51:23;9.87;;;5.10;;
9082;SDS011;4577;48.704;9.000;2024-01-30T03:53:49;10.73;;;5.77;;
9082;SDS011;4577;48.704;9.000;2024-01-30T03:56:16;11.27;;;6.10;;
9082;SDS011;4577;48.704;9.000;2024-01-30T03:58:42;10.10;;;5.87;;
9082;SDS011;4577;48.704;9.000;2024-01-30T04:01:12;7.13;;;5.37;;
9082;SDS011;4577;48.704;9.000;2024-01-30T04:03:41;10.63;;;5.80;;
9082;SDS011;4577;48.704;9.000;2024-01-30T04:06:09;14.13;;;6.00;;
9082;SDS011;4577;48.704;9.000;2024-01-30T04:08:35;8.97;;;6.33;;
9082;SDS011;4577;48.704;9.000;2024-01-30T04:11:05;9.00;;;6.33;;
9082;SDS011;4577;48.704;9.000;2024-01-30T04:13:31;10.13;;;6.20;;
9082;SDS011;4577;48.704;9.000;2024-01-30T04:15:58;17.10;;;9.37;;
9082;SDS011;4577;48.704;9.000;2024-01-30T04:18:29;17.33;;;10.20;;
9082;SDS011;4577;48.704;9.000;2024-01-30T04:20:55;11.63;;;6.50;;
9082;SDS011;4577;48.704;9.000;2024-01-30T04:23:21;13.40;;;6.00;;
9082;SDS011;4577;48.704;9.000;2024-01-30T04:25:47;7.00;;;5.10;;
9082;SDS011;4577;48.704;9.000;2024-01-30T04:28:13;9.90;;;5.73;;
9082;SDS011;4577;48.704;9.000;2024-01-30T04:30:40;8.67;;;5.50;;
9082;SDS011;4577;48.704;9.000;2024-01-30T04:33:06;10.20;;;5.73;;
9082;SDS011;4577;48.704;9.000;2024-01-30T04:35:32;11.43;;;5.80;;
9082;SDS011;4577;48.704;9.000;2024-01-30T04:37:58;9.03;;;5.60;;
9082;SDS011;4577;48.704;9.000;2024-01-30T04:40:24;9.00;;;5.77;;
9082;SDS011;4577;48.704;9.000;2024-01-30T04:42:50;12.53;;;5.93;;
9082;SDS011;4577;48.704;9.000;2024-01-30T04:45:16;8.30;;;5.60;;
9082;SDS011;4577;48.704;9.000;2024-01-30T04:47:42;8.40;;;5.50;;
9082;SDS011;4577;48.704;9.000;2024-01-30T04:50:09;9.83;;;5.80;;
9082;SDS011;4577;48.704;9.000;2024-01-30T04:52:35;9.30;;;5.63;;
9082;SDS011;4577;48.704;9.000;2024-01-30T04:55:01;10.20;;;5.90;;
9082;SDS011;4577;48.704;9.000;2024-01-30T04:57:27;10.53;;;5.57;;
9082;SDS011;4577;48.704;9.000;2024-01-30T04:59:54;10.03;;;5.40;;
9082;SDS011;4577;48.704;9.000;2024-01-30T05:02:20;9.93;;;6.03;;
9082;SDS011;4577;48.704;9.000;2024-01-30T05:04:46;8.93;;;6.27;;
9082;SDS011;4577;48.704;9.000;2024-01-30T05:07:12;14.03;;;7.70;;
9082;SDS011;4577;48.704;9.000;2024-01-30T05:09:38;9.67;;;6.63;;
9082;SDS011;4577;48.704;9.000;2024-01-30T05:12:04;11.67;;;6.97;;
9082;SDS011;4577;48.704;9.000;2024-01-30T05:14:31;10.07;;;6.70;;
9082;SDS011;4577;48.704;9.000;2024-01-30T05:16:57;11.10;;;6.13;;
9082;SDS011;4577;48.704;9.000;2024-01-30T05:19:23;13.60;;;6.67;;
9082;SDS011;4577;48.704;9.000;2024-01-30T05:21:49;9.57;;;6.17;;
9082;SDS011;4577;48.704;9.000;2024-01-30T05:24:15;12.27;;;6.50;;
9082;SDS011;4577;48.704;9.000;2024-01-30T05:26:42;10.73;;;7.07;;
9082;SDS011;4577;48.704;9.000;2024-01-30T05:29:08;9.70;;;6.80;;
9082;SDS011;4577;48.704;9.000;2024-01-30T05:31:34;9.77;;;6.13;;
9082;SDS011;4577;48.704;9.000;2024-01-30T05:34:03;12.90;;;7.20;;
9082;SDS011;4577;48.704;9.000;2024-01-30T05:36:31;13.87;;;7.00;;
9082;SDS011;4577;48.704;9.000;2024-01-30T05:39:00;10.27;;;6.40;;
9082;SDS011;4577;48.704;9.000;2024-01-30T05:41:26;10.83;;;5.97;;
9082;SDS011;4577;48.704;9.000;2024-01-30T05:43:53;9.40;;;6.20;;
9082;SDS011;4577;48.704;9.000;2024-01-30T05:46:19;10.27;;;6.37;;
9082;SDS011;4577;48.704;9.000;2024-01-30T05:48:52;11.50;;;6.17;;
9082;SDS011;4577;48.704;9.000;2024-01-30T05:51:19;8.73;;;5.87;;
9082;SDS011;4577;48.704;9.000;2024-01-30T05:53:45;10.50;;;6.13;;
9082;SDS011;4577;48.704;9.000;2024-01-30T05:56:11;8.40;;;5.67;;
9082;SDS011;4577;48.704;9.000;2024-01-30T05:58:40;11.30;;;6.13;;
9082;SDS011;4577;48.704;9.000;2024-01-30T06:01:08;9.50;;;6.17;;
9082;SDS011;4577;48.704;9.000;2024-01-30T06:03:34;9.97;;;6.43;;
9082;SDS011;4577;48.704;9.000;2024-01-30T06:06:00;10.13;;;6.17;;
9082;SDS011;4577;48.704;9.000;2024-01-30T06:08:29;9.67;;;6.10;;
9082;SDS011;4577;48.704;9.000;2024-01-30T06:10:56;9.90;;;6.03;;
9082;SDS011;4577;48.704;9.000;2024-01-30T06:13:22;11.23;;;6.93;;
9082;SDS011;4577;48.704;9.000;2024-01-30T06:15:48;15.87;;;6.80;;
9082;SDS011;4577;48.704;9.000;2024-01-30T06:18:14;11.70;;;6.70;;
9082;SDS011;4577;48.704;9.000;2024-01-30T06:20:40;11.20;;;6.40;;
9082;SDS011;4577;48.704;9.000;2024-01-30T06:23:06;14.27;;;6.47;;
9082;SDS011;4577;48.704;9.000;2024-01-30T06:25:32;8.60;;;6.30;;
9082;SDS011;4577;48.704;9.000;2024-01-30T06:27:58;11.60;;;6.50;;
9082;SDS011;4577;48.704;9.000;2024-01-30T06:30:24;11.90;;;6.37;;
9082;SDS011;4577;48.704;9.000;2024-01-30T06:32:50;14.13;;;6.80;;
9082;SDS011;4577;48.704;9.000;2024-01-30T06:35:17;23.27;;;7.43;;
9082;SDS011;4577;48.704;9.000;2024-01-30T06:37:43;14.00;;;6.53;;
9082;SDS011;4577;48.704;9.000;2024-01-30T06:40:09;14.17;;;6.93;;
9082;SDS011;4577;48.704;9.000;2024-01-30T06:42:35;14.47;;;6.63;;
9082;SDS011;4577;48.704;9.000;2024-01-30T06:45:07;17.63;;;7.47;;
9082;SDS011;4577;48.704;9.000;2024-01-30T06:47:46;12.67;;;6.67;;
9082;SDS011;4577;48.704;9.000;2024-01-30T06:50:18;12.90;;;7.60;;
9082;SDS011;4577;48.704;9.000;2024-01-30T06:53:24;51.47;;;17.50;;
9082;SDS011;4577;48.704;9.000;2024-01-30T06:55:57;53.47;;;17.97;;
9082;SDS011;4577;48.704;9.000;2024-01-30T06:59:03;56.30;;;20.30;;
9082;SDS011;4577;48.704;9.000;2024-01-30T07:02:03;33.07;;;13.60;;
9082;SDS011;4577;48.704;9.000;2024-01-30T07:07:57;22.47;;;9.20;;
9082;SDS011;4577;48.704;9.000;2024-01-30T07:10:23;17.63;;;8.90;;
9082;SDS011;4577;48.704;9.000;2024-01-30T07:12:49;33.23;;;9.90;;
9082;SDS011;4577;48.704;9.000;2024-01-30T07:15:15;40.13;;;11.30;;
9082;SDS011;4577;48.704;9.000;2024-01-30T07:17:45;36.33;;;10.90;;
9082;SDS011;4577;48.704;9.000;2024-01-30T07:20:11;67.27;;;11.83;;
9082;SDS011;4577;48.704;9.000;2024-01-30T07:22:37;26.63;;;10.67;;
9082;SDS011;4577;48.704;9.000;2024-01-30T07:25:04;26.77;;;12.27;;
9082;SDS011;4577;48.704;9.000;2024-01-30T07:27:30;29.30;;;11.80;;
9082;SDS011;4577;48.704;9.000;2024-01-30T07:30:03;21.67;;;9.70;;
9082;SDS011;4577;48.704;9.000;2024-01-30T07:32:30;75.07;;;17.80;;
9082;SDS011;4577;48.704;9.000;2024-01-30T07:34:59;118.93;;;21.50;;
9082;SDS011;4577;48.704;9.000;2024-01-30T07:37:25;74.23;;;23.00;;
9082;SDS011;4577;48.704;9.000;2024-01-30T07:39:53;123.20;;;52.90;;
9082;SDS011;4577;48.704;9.000;2024-01-30T07:42:22;139.17;;;59.50;;
9082;SDS011;4577;48.704;9.000;2024-01-30T07:44:54;56.50;;;26.90;;
9082;SDS011;4577;48.704;9.000;2024-01-30T07:47:43;34.87;;;15.20;;
9082;SDS011;4577;48.704;9.000;2024-01-30T07:50:44;26.23;;;11.80;;
9082;SDS011;4577;48.704;9.000;2024-01-30T07:55:55;31.57;;;11.50;;
9082;SDS011;4577;48.704;9.000;2024-01-30T07:58:21;25.30;;;11.30;;
9082;SDS011;4577;48.704;9.000;2024-01-30T08:00:48;27.27;;;11.47;;
9082;SDS011;4577;48.704;9.000;2024-01-30T08:03:16;40.93;;;13.80;;
9082;SDS011;4577;48.704;9.000;2024-01-30T08:05:43;28.67;;;11.90;;
9082;SDS011;4577;48.704;9.000;2024-01-30T08:08:09;26.47;;;11.90;;
9082;SDS011;4577;48.704;9.000;2024-01-30T08:10:35;25.03;;;10.93;;
9082;SDS011;4577;48.704;9.000;2024-01-30T08:13:01;20.43;;;10.83;;
9082;SDS011;4577;48.704;9.000;2024-01-30T08:15:27;19.33;;;10.83;;
9082;SDS011;4577;48.704;9.000;2024-01-30T08:17:53;19.57;;;10.80;;
9082;SDS011;4577;48.704;9.000;2024-01-30T08:20:23;26.53;;;10.50;;
9082;SDS011;4577;48.704;9.000;2024-01-30T08:22:49;21.40;;;11.03;;
9082;SDS011;4577;48.704;9.000;2024-01-30T08:25:15;27.07;;;11.20;;
9082;SDS011;4577;48.704;9.000;2024-01-30T08:27:40;30.20;;;10.50;;
9082;SDS011;4577;48.704;9.000;2024-01-30T08:30:06;31.47;;;12.37;;
9082;SDS011;4577;48.704;9.000;2024-01-30T08:32:32;42.23;;;12.10;;
9082;SDS011;4577;48.704;9.000;2024-01-30T08:34:58;27.30;;;10.30;;
9082;SDS011;4577;48.704;9.000;2024-01-30T08:37:24;28.83;;;10.77;;
9082;SDS011;4577;48.704;9.000;2024-01-30T08:39:50;49.80;;;12.53;;
9082;SDS011;4577;48.704;9.000;2024-01-30T08:42:19;35.47;;;11.97;;
9082;SDS011;4577;48.704;9.000;2024-01-30T08:44:50;44.27;;;12.40;;
9082;SDS011;4577;48.704;9.000;2024-01-30T08:47:18;25.63;;;11.43;;
9082;SDS011;4577;48.704;9.000;2024-01-30T08:49:44;37.53;;;12.23;;
9082;SDS011;4577;48.704;9.000;2024-01-30T08:52:12;39.27;;;13.00;;
9082;SDS011;4577;48.704;9.000;2024-01-30T08:54:38;33.27;;;11.87;;
9082;SDS011;4577;48.704;9.000;2024-01-30T08:57:04;52.90;;;13.53;;
9082;SDS011;4577;48.704;9.000;2024-01-30T08:59:30;38.47;;;12.90;;
9082;SDS011;4577;48.704;9.000;2024-01-30T09:01:56;33.93;;;13.90;;
9082;SDS011;4577;48.704;9.000;2024-01-30T09:04:23;42.57;;;14.10;;
9082;SDS011;4577;48.704;9.000;2024-01-30T09:06:49;47.13;;;13.43;;
9082;SDS011;4577;48.704;9.000;2024-01-30T09:09:14;63.10;;;15.40;;
9082;SDS011;4577;48.704;9.000;2024-01-30T09:11:40;49.73;;;14.30;;
9082;SDS011;4577;48.704;9.000;2024-01-30T09:14:06;39.33;;;12.77;;
9082;SDS011;4577;48.704;9.000;2024-01-30T09:16:31;34.73;;;13.60;;
9082;SDS011;4577;48.704;9.000;2024-01-30T09:18:58;41.37;;;12.30;;
9082;SDS011;4577;48.704;9.000;2024-01-30T09:21:24;46.77;;;14.70;;
9082;SDS011;4577;48.704;9.000;2024-01-30T09:23:49;48.70;;;16.00;;
9082;SDS011;4577;48.704;9.000;2024-01-30T09:26:15;46.47;;;16.23;;
9082;SDS011;4577;48.704;9.000;2024-01-30T09:28:41;66.77;;;18.10;;
9082;SDS011;4577;48.704;9.000;2024-01-30T09:31:11;52.20;;;13.80;;
9082;SDS011;4577;48.704;9.000;2024-01-30T09:33:37;46.03;;;12.60;;
9082;SDS011;4577;48.704;9.000;2024-01-30T09:36:03;31.90;;;12.20;;
9082;SDS011;4577;48.704;9.000;2024-01-30T09:38:30;25.43;;;11.83;;
9082;SDS011;4577;48.704;9.000;2024-01-30T09:40:56;26.93;;;11.17;;
9082;SDS011;4577;48.704;9.000;2024-01-30T09:43:28;27.00;;;10.30;;
9082;SDS011;4577;48.704;9.000;2024-01-30T09:46:04;22.23;;;10.03;;
9082;SDS011;4577;48.704;9.000;2024-01-30T09:48:33;24.87;;;10.77;;
9082;SDS011;4577;48.704;9.000;2024-01-30T09:50:59;27.60;;;10.30;;
9082;SDS011;4577;48.704;9.000;2024-01-30T09:53:25;19.97;;;10.27;;
9082;SDS011;4577;48.704;9.000;2024-01-30T09:55:51;25.43;;;11.67;;
9082;SDS011;4577;48.704;9.000;2024-01-30T09:58:17;20.10;;;10.20;;
9082;SDS011;4577;48.704;9.000;2024-01-30T10:00:42;21.50;;;10.00;;
9082;SDS011;4577;48.704;9.000;2024-01-30T10:03:08;28.37;;;10.43;;
9082;SDS011;4577;48.704;9.000;2024-01-30T10:05:35;27.80;;;11.33;;
9082;SDS011;4577;48.704;9.000;2024-01-30T10:08:07;31.90;;;10.70;;
9082;SDS011;4577;48.704;9.000;2024-01-30T10:10:33;28.43;;;11.00;;
9082;SDS011;4577;48.704;9.000;2024-01-30T10:13:00;26.63;;;11.60;;
9082;SDS011;4577;48.704;9.000;2024-01-30T10:15:27;17.70;;;8.40;;
9082;SDS011;4577;48.704;9.000;2024-01-30T10:17:53;12.43;;;7.00;;
9082;SDS011;4577;48.704;9.000;2024-01-30T10:20:19;20.90;;;9.13;;
9082;SDS011;4577;48.704;9.000;2024-01-30T10:22:47;29.30;;;8.50;;
9082;SDS011;4577;48.704;9.000;2024-01-30T10:25:14;14.43;;;8.47;;
9082;SDS011;4577;48.704;9.000;2024-01-30T10:27:40;17.10;;;9.17;;
9082;SDS011;4577;48.704;9.000;2024-01-30T10:30:06;22.93;;;8.50;;
9082;SDS011;4577;48.704;9.000;2024-01-30T10:32:32;20.57;;;6.90;;
9082;SDS011;4577;48.704;9.000;2024-01-30T10:34:58;21.47;;;12.37;;
9082;SDS011;4577;48.704;9.000;2024-01-30T10:37:28;50.87;;;26.30;;
9082;SDS011;4577;48.704;9.000;2024-01-30T10:39:57;61.43;;;28.43;;
9082;SDS011;4577;48.704;9.000;2024-01-30T10:42:28;18.40;;;9.00;;
9082;SDS011;4577;48.704;9.000;2024-01-30T10:45:02;12.70;;;5.90;;
9082;SDS011;4577;48.704;9.000;2024-01-30T10:47:33;14.57;;;6.60;;
9082;SDS011;4577;48.704;9.000;2024-01-30T10:50:03;15.30;;;5.83;;
9082;SDS011;4577;48.704;9.000;2024-01-30T10:52:29;18.50;;;6.33;;
9082;SDS011;4577;48.704;9.000;2024-01-30T10:54:57;12.03;;;6.00;;
9082;SDS011;4577;48.704;9.000;2024-01-30T10:57:24;16.13;;;5.47;;
9082;SDS011;4577;48.704;9.000;2024-01-30T10:59:54;15.53;;;6.40;;
9082;SDS011;4577;48.704;9.000;2024-01-30T11:02:24;23.33;;;7.10;;
9082;SDS011;4577;48.704;9.000;2024-01-30T11:04:54;17.10;;;6.10;;
9082;SDS011;4577;48.704;9.000;2024-01-30T11:07:25;40.30;;;7.50;;
9082;SDS011;4577;48.704;9.000;2024-01-30T11:12:25;15.00;;;5.37;;
9082;SDS011;4577;48.704;9.000;2024-01-30T11:15:03;8.90;;;4.73;;
9082;SDS011;4577;48.704;9.000;2024-01-30T11:17:43;14.57;;;5.07;;
9082;SDS011;4577;48.704;9.000;2024-01-30T11:22:51;11.30;;;4.93;;
9082;SDS011;4577;48.704;9.000;2024-01-30T11:25:22;13.90;;;6.63;;
9082;SDS011;4577;48.704;9.000;2024-01-30T11:27:52;13.47;;;5.30;;
9082;SDS011;4577;48.704;9.000;2024-01-30T11:35:52;16.23;;;4.50;;
9082;SDS011;4577;48.704;9.000;2024-01-30T11:38:19;17.47;;;4.57;;
9082;SDS011;4577;48.704;9.000;2024-01-30T11:40:44;14.33;;;4.77;;
9082;SDS011;4577;48.704;9.000;2024-01-30T11:43:10;9.30;;;5.70;;
9082;SDS011;4577;48.704;9.000;2024-01-30T11:45:37;14.87;;;7.00;;
9082;SDS011;4577;48.704;9.000;2024-01-30T11:48:04;20.50;;;9.23;;
9082;SDS011;4577;48.704;9.000;2024-01-30T11:50:33;12.47;;;4.60;;
9082;SDS011;4577;48.704;9.000;2024-01-30T11:53:00;8.10;;;4.30;;
9082;SDS011;4577;48.704;9.000;2024-01-30T11:55:27;10.33;;;5.30;;
9082;SDS011;4577;48.704;9.000;2024-01-30T11:57:57;12.47;;;6.03;;
9082;SDS011;4577;48.704;9.000;2024-01-30T12:00:24;65.40;;;12.07;;
9082;SDS011;4577;48.704;9.000;2024-01-30T12:02:54;15.47;;;7.00;;
9082;SDS011;4577;48.704;9.000;2024-01-30T12:05:25;8.13;;;4.10;;
9082;SDS011;4577;48.704;9.000;2024-01-30T12:07:51;14.50;;;6.60;;
9082;SDS011;4577;48.704;9.000;2024-01-30T12:10:18;16.03;;;7.13;;
9082;SDS011;4577;48.704;9.000;2024-01-30T12:12:45;10.00;;;5.20;;
9082;SDS011;4577;48.704;9.000;2024-01-30T12:15:12;7.23;;;3.97;;
9082;SDS011;4577;48.704;9.000;2024-01-30T12:17:39;7.80;;;4.30;;
9082;SDS011;4577;48.704;9.000;2024-01-30T12:20:05;8.80;;;4.87;;
9082;SDS011;4577;48.704;9.000;2024-01-30T12:22:33;21.00;;;9.40;;
9082;SDS011;4577;48.704;9.000;2024-01-30T12:25:02;11.57;;;4.77;;
9082;SDS011;4577;48.704;9.000;2024-01-30T12:27:29;9.50;;;5.33;;
9082;SDS011;4577;48.704;9.000;2024-01-30T12:29:55;18.97;;;7.50;;
9082;SDS011;4577;48.704;9.000;2024-01-30T12:32:23;23.67;;;7.73;;
9082;SDS011;4577;48.704;9.000;2024-01-30T12:34:48;12.70;;;4.53;;
9082;SDS011;4577;48.704;9.000;2024-01-30T12:37:14;10.10;;;6.20;;
9082;SDS011;4577;48.704;9.000;2024-01-30T12:39:45;25.63;;;12.07;;
9082;SDS011;4577;48.704;9.000;2024-01-30T12:42:10;34.70;;;17.57;;
9082;SDS011;4577;48.704;9.000;2024-01-30T12:44:36;17.37;;;9.20;;
9082;SDS011;4577;48.704;9.000;2024-01-30T12:47:05;67.67;;;11.17;;
9082;SDS011;4577;48.704;9.000;2024-01-30T12:49:31;32.43;;;8.63;;
9082;SDS011;4577;48.704;9.000;2024-01-30T12:51:56;27.97;;;8.60;;
9082;SDS011;4577;48.704;9.000;2024-01-30T12:54:23;61.50;;;20.87;;
9082;SDS011;4577;48.704;9.000;2024-01-30T12:56:49;27.50;;;11.63;;
9082;SDS011;4577;48.704;9.000;2024-01-30T12:59:15;30.07;;;9.43;;
9082;SDS011;4577;48.704;9.000;2024-01-30T13:01:41;22.20;;;5.30;;
9082;SDS011;4577;48.704;9.000;2024-01-30T13:04:07;23.53;;;7.67;;
9082;SDS011;4577;48.704;9.000;2024-01-30T13:06:32;211.20;;;30.60;;
9082;SDS011;4577;48.704;9.000;2024-01-30T13:09:01;16.83;;;5.57;;
9082;SDS011;4577;48.704;9.000;2024-01-30T13:11:26;7.20;;;3.80;;
9082;SDS011;4577;48.704;9.000;2024-01-30T13:13:52;8.53;;;4.53;;
9082;SDS011;4577;48.704;9.000;2024-01-30T13:16:18;18.97;;;4.37;;
9082;SDS011;4577;48.704;9.000;2024-01-30T13:18:44;10.67;;;3.60;;
9082;SDS011;4577;48.704;9.000;2024-01-30T13:21:10;8.17;;;4.17;;
9082;SDS011;4577;48.704;9.000;2024-01-30T13:23:35;18.23;;;5.00;;
9082;SDS011;4577;48.704;9.000;2024-01-30T13:26:01;5.73;;;3.13;;
9082;SDS011;4577;48.704;9.000;2024-01-30T13:28:27;31.40;;;18.50;;
9082;SDS011;4577;48.704;9.000;2024-01-30T13:30:53;68.90;;;40.83;;
9082;SDS011;4577;48.704;9.000;2024-01-30T13:33:19;25.50;;;6.30;;
9082;SDS011;4577;48.704;9.000;2024-01-30T13:35:44;7.13;;;4.80;;
9082;SDS011;4577;48.704;9.000;2024-01-30T13:38:10;13.90;;;6.97;;
9082;SDS011;4577;48.704;9.000;2024-01-30T13:40:36;17.93;;;8.60;;
9082;SDS011;4577;48.704;9.000;2024-01-30T13:43:02;16.30;;;6.87;;
9082;SDS011;4577;48.704;9.000;2024-01-30T13:45:27;6.60;;;3.50;;
9082;SDS011;4577;48.704;9.000;2024-01-30T13:47:53;7.03;;;3.47;;
9082;SDS011;4577;48.704;9.000;2024-01-30T13:50:19;6.20;;;3.33;;
9082;SDS011;4577;48.704;9.000;2024-01-30T13:52:45;16.83;;;8.30;;
9082;SDS011;4577;48.704;9.000;2024-01-30T13:55:11;18.10;;;6.97;;
9082;SDS011;4577;48.704;9.000;2024-01-30T13:57:36;14.53;;;6.87;;
9082;SDS011;4577;48.704;9.000;2024-01-30T14:00:03;6.67;;;4.40;;
9082;SDS011;4577;48.704;9.000;2024-01-30T14:02:32;16.57;;;3.80;;
9082;SDS011;4577;48.704;9.000;2024-01-30T14:04:57;15.83;;;5.60;;
9082;SDS011;4577;48.704;9.000;2024-01-30T14:07:23;33.07;;;6.07;;
9082;SDS011;4577;48.704;9.000;2024-01-30T14:09:49;31.73;;;8.03;;
9082;SDS011;4577;48.704;9.000;2024-01-30T14:12:15;18.00;;;8.73;;
9082;SDS011;4577;48.704;9.000;2024-01-30T14:14:40;13.70;;;7.43;;
9082;SDS011;4577;48.704;9.000;2024-01-30T14:17:06;16.83;;;5.43;;
9082;SDS011;4577;48.704;9.000;2024-01-30T14:19:35;4.00;;;3.30;;
9082;SDS011;4577;48.704;9.000;2024-01-30T14:22:01;16.77;;;8.17;;
9082;SDS011;4577;48.704;9.000;2024-01-30T14:24:27;13.67;;;7.30;;
9082;SDS011;4577;48.704;9.000;2024-01-30T14:26:53;12.30;;;6.47;;
9082;SDS011;4577;48.704;9.000;2024-01-30T14:29:19;19.00;;;8.40;;
9082;SDS011;4577;48.704;9.000;2024-01-30T14:31:44;24.63;;;11.47;;
9082;SDS011;4577;48.704;9.000;2024-01-30T14:34:10;30.87;;;14.93;;
9082;SDS011;4577;48.704;9.000;2024-01-30T14:36:39;32.67;;;16.27;;
9082;SDS011;4577;48.704;9.000;2024-01-30T14:39:04;20.33;;;11.67;;
9082;SDS011;4577;48.704;9.000;2024-01-30T14:41:31;7.17;;;3.80;;
9082;SDS011;4577;48.704;9.000;2024-01-30T14:43:57;12.63;;;5.90;;
9082;SDS011;4577;48.704;9.000;2024-01-30T14:46:23;34.63;;;5.70;;
9082;SDS011;4577;48.704;9.000;2024-01-30T14:48:49;12.43;;;6.13;;
9082;SDS011;4577;48.704;9.000;2024-01-30T14:51:16;65.43;;;12.60;;
9082;SDS011;4577;48.704;9.000;2024-01-30T14:53:42;40.17;;;13.27;;
9082;SDS011;4577;48.704;9.000;2024-01-30T14:56:08;20.97;;;9.80;;
9082;SDS011;4577;48.704;9.000;2024-01-30T14:58:35;32.47;;;11.47;;
9082;SDS011;4577;48.704;9.000;2024-01-30T15:01:01;13.67;;;7.20;;
9082;SDS011;4577;48.704;9.000;2024-01-30T15:03:27;22.20;;;6.83;;
9082;SDS011;4577;48.704;9.000;2024-01-30T15:05:56;42.43;;;7.67;;
9082;SDS011;4577;48.704;9.000;2024-01-30T15:08:22;29.63;;;6.00;;
9082;SDS011;4577;48.704;9.000;2024-01-30T15:10:48;17.43;;;8.47;;
9082;SDS011;4577;48.704;9.000;2024-01-30T15:13:15;32.10;;;8.00;;
9082;SDS011;4577;48.704;9.000;2024-01-30T15:15:41;12.63;;;5.90;;
9082;SDS011;4577;48.704;9.000;2024-01-30T15:18:07;15.60;;;5.90;;
9082;SDS011;4577;48.704;9.000;2024-01-30T15:20:36;10.30;;;4.30;;